Airfield :
LOGIN :

Register | Disclaimer

   EN    FR    IT 

 










Legend :    VFR   Marginal VFR   IFR   Intensive IFR   Very Intensive IFR
Visi :
Ceiling :
>= 8 km
>= 3000ft
5 to 8 km
1000 to 3000 ft
1500m to 5 km
500 to 1000 ft
800 to 1500m
200 to 500 ft
< 800m
< 200 ft
Symbols :   Thunderstorms  Fog  Heavy snow  Heavy precipitations  Wind > 20 kt
SIGMETs :     Misc.  Thunderstorms  Icing  Turbulence  Mountain Waves  Volcanic Ashes






- Airport Elevation : 604 ft
- IATA code : LCJ


EPLL - Lodz

CURRENT METAR :
  • 242200Z 16004KT 110V200 CAVOK 03/M01 Q1007

EXPIRED METARs :
  • 242130Z VRB02KT CAVOK 03/M00 Q1008
  • 242100Z 19003KT 130V230 CAVOK 03/M00 Q1009
  • 242030Z 20005KT 160V230 CAVOK 03/00 Q1010
  • 242000Z 20005KT 160V230 9999 FEW040 03/00 Q1010
  • 241930Z 19004KT 140V230 9999 FEW038 03/00 Q1011
  • 241900Z 20003KT 170V230 CAVOK 03/00 Q1011

TAF TAF EPLL
Valid from the 24 at 18:00 until the 25 at 18:00 UTC


241730Z 2418/2518 23005KT 9999 BKN030
BECMG 2500/2502 17012KT 4000 -RA BR BKN006 OVC012
PROB40
TEMPO 2500/2505 2000 SNRA BR BKN003
BECMG 2504/2506 27014KT
BECMG 2506/2509 8000 BKN012
PROB40
TEMPO 2509/2516 27016G27KT SHRA SCT012CB BKN016



MET'MAP, your aeronautical weather chart ! - Copyright ORBIFLY December 2007 - Disclaimer

ORBIFLY MET'MAP TEAM :

Programming & Development : Alexandra Zaïnal
Concept & original design : Baudouin d'Aumeries
Assistance for programming : Marc-Olivier Méhu
Technical & hardware support : Manuel Goepfert

Contact : metmap@orbifly.com




SOURCES & CREDITS :

   NOAA